Terminal Aerodrome Forecast
Issued by NWS

Home | Current Version | Previous Version | Text Only | Print | Product List | Glossary Off
Versions: 1 2 3 4 5 6 7 8 9 10 11 12

142
FTUS43 KICT 021121
TAFRSL
TAF
KRSL 021121Z 0212/0312 32010KT P6SM BKN050
     FM021500 33010KT P6SM SCT050
     FM021800 34009KT P6SM SCT250
     FM030200 18006KT P6SM SCT250=

USA.gov is the U.S. government's official web portal to all federal, state and local government web resources and services.